Time;durP1;ratioP1;P1;durP2;ratioP2;P2;SDS_P1;SDS_P2;PMS_P1;PMS_P2;Temp;Humidity;BMP_temperature;BMP_pressure;BME280_temperature;BME280_humidity;BME280_pressure;Samples;Min_cycle;Max_cycle;Signal;HPM_P1;HPM_P2
2022/01/14 00:01:44;;;;;;;20.52;7.25;;;6.90;99.90;;;;;;5055231;28;20029;-70
2022/01/14 00:04:09;;;;;;;21.00;7.13;;;6.90;99.90;;;;;;5058662;28;20114;-72
2022/01/14 00:06:35;;;;;;;21.83;7.10;;;6.90;99.90;;;;;;5069048;28;20029;-72
2022/01/14 00:09:06;;;;;;;27.13;7.60;;;6.90;99.90;;;;;;5061766;28;20024;-72
2022/01/14 00:11:36;;;;;;;30.83;7.50;;;6.90;99.90;;;;;;5057426;28;20066;-70
2022/01/14 00:16:31;;;;;;;34.15;7.80;;;6.90;99.90;;;;;;5055610;28;20035;-72
2022/01/14 00:18:58;;;;;;;26.33;7.45;;;7.00;99.90;;;;;;5046029;28;20080;-70
2022/01/14 00:21:24;;;;;;;27.00;8.05;;;7.00;99.90;;;;;;5071680;28;20067;-73
2022/01/14 00:23:53;;;;;;;22.83;8.60;;;7.00;99.90;;;;;;5065073;28;20069;-72
2022/01/14 00:31:56;;;;;;;24.38;8.63;;;7.10;99.90;;;;;;5058062;28;20039;-72
2022/01/14 00:34:22;;;;;;;26.83;8.65;;;7.10;99.90;;;;;;5055491;28;20068;-72
2022/01/14 00:36:47;;;;;;;25.10;8.55;;;7.10;99.90;;;;;;5063021;28;20052;-72
2022/01/14 00:39:14;;;;;;;25.45;9.40;;;7.10;99.90;;;;;;5058267;28;20389;-73
2022/01/14 00:41:40;;;;;;;24.83;8.80;;;7.00;99.90;;;;;;5070345;28;20040;-73
2022/01/14 00:44:10;;;;;;;23.90;8.88;;;7.10;99.90;;;;;;5061858;28;20456;-72
2022/01/14 00:46:41;;;;;;;23.42;9.32;;;7.00;99.90;;;;;;5069564;28;20028;-72
2022/01/14 00:49:07;;;;;;;24.92;10.05;;;6.90;99.90;;;;;;5057863;28;20025;-72
2022/01/14 00:51:34;;;;;;;26.23;9.65;;;6.90;99.90;;;;;;5064440;28;20450;-70
2022/01/14 00:54:00;;;;;;;31.23;10.75;;;6.90;99.90;;;;;;5062284;28;20032;-72
2022/01/14 01:01:37;;;;;;;31.30;10.43;;;6.80;99.90;;;;;;5061476;28;20043;-71
2022/01/14 01:04:03;;;;;;;31.13;11.48;;;6.90;99.90;;;;;;5056591;28;20128;-72
2022/01/14 01:06:29;;;;;;;31.55;10.77;;;6.90;99.90;;;;;;5056770;28;20123;-72
2022/01/14 01:08:56;;;;;;;29.75;10.77;;;6.90;99.90;;;;;;5055826;28;20039;-71
2022/01/14 01:11:30;;;;;;;26.05;10.05;;;6.90;99.90;;;;;;5064331;28;20087;-71
2022/01/14 01:14:05;;;;;;;29.20;10.75;;;6.80;99.90;;;;;;5065081;28;20035;-72
2022/01/14 01:16:30;;;;;;;29.95;10.50;;;6.80;99.90;;;;;;5057498;28;20462;-70
2022/01/14 01:18:56;;;;;;;26.67;9.88;;;6.80;99.90;;;;;;5058434;28;20067;-73
2022/01/14 01:21:22;;;;;;;34.63;10.63;;;6.80;99.90;;;;;;5059002;28;20033;-72
2022/01/14 01:23:47;;;;;;;31.42;11.10;;;6.80;99.90;;;;;;5064221;28;20534;-71
2022/01/14 01:26:20;;;;;;;30.98;11.10;;;6.70;99.90;;;;;;5061439;28;20033;-72
2022/01/14 01:31:38;;;;;;;32.78;11.43;;;6.70;99.90;;;;;;5054535;28;20071;-72
2022/01/14 01:34:07;;;;;;;35.15;12.18;;;6.60;99.90;;;;;;5058868;28;20039;-71
2022/01/14 01:36:33;;;;;;;41.90;12.95;;;6.60;99.90;;;;;;5063560;28;20028;-73
2022/01/14 01:38:59;;;;;;;33.03;11.68;;;6.60;99.90;;;;;;5052901;28;20090;-72
2022/01/14 01:41:25;;;;;;;33.20;13.48;;;6.60;99.90;;;;;;5058367;28;20428;-72
2022/01/14 01:43:55;;;;;;;32.40;13.25;;;6.60;99.90;;;;;;5063371;28;20041;-73
2022/01/14 01:46:23;;;;;;;36.17;12.05;;;6.60;99.90;;;;;;5059176;28;20412;-72
2022/01/14 01:48:53;;;;;;;39.90;13.15;;;6.50;99.90;;;;;;5057933;28;20017;-73
2022/01/14 01:51:19;;;;;;;32.58;12.18;;;6.50;99.90;;;;;;5055768;28;20033;-71
2022/01/14 01:53:46;;;;;;;33.65;13.85;;;6.50;99.90;;;;;;5065939;28;20035;-71
2022/01/14 01:56:12;;;;;;;28.88;11.23;;;6.50;99.90;;;;;;5041519;28;20045;-71
2022/01/14 01:58:38;;;;;;;31.83;11.82;;;6.50;99.90;;;;;;5064444;28;20088;-70
2022/01/14 02:01:08;;;;;;;36.53;11.45;;;6.50;99.90;;;;;;5054813;28;20024;-73
2022/01/14 02:03:36;;;;;;;40.03;12.57;;;6.40;99.90;;;;;;5067526;28;20059;-71
2022/01/14 02:06:02;;;;;;;35.13;12.43;;;6.40;99.90;;;;;;5061046;28;20025;-73
2022/01/14 02:08:28;;;;;;;30.13;11.75;;;6.40;99.90;;;;;;5063749;28;20033;-71
2022/01/14 02:10:54;;;;;;;32.95;11.60;;;6.40;99.90;;;;;;5038753;28;20025;-72
2022/01/14 02:13:19;;;;;;;34.83;11.63;;;6.40;99.90;;;;;;5067376;28;20028;-70
2022/01/14 02:16:12;;;;;;;34.30;11.48;;;6.40;99.90;;;;;;5065175;28;20150;-73
2022/01/14 02:23:53;;;;;;;29.33;10.45;;;6.30;99.90;;;;;;5056522;28;20090;-71
2022/01/14 02:26:21;;;;;;;30.48;9.90;;;6.30;99.90;;;;;;5055399;28;20477;-71
2022/01/14 02:28:48;;;;;;;33.17;10.38;;;6.30;99.90;;;;;;5059007;28;20032;-72
2022/01/14 02:31:14;;;;;;;31.63;10.25;;;6.30;99.90;;;;;;5051493;28;20120;-72
2022/01/14 02:33:40;;;;;;;26.25;9.20;;;6.30;99.90;;;;;;5062959;28;20476;-72
2022/01/14 02:36:07;;;;;;;31.10;9.52;;;6.30;99.90;;;;;;5062601;28;20078;-72
2022/01/14 02:38:33;;;;;;;33.38;10.05;;;6.30;99.90;;;;;;5058359;28;20025;-70
2022/01/14 02:41:02;;;;;;;28.50;9.10;;;6.30;99.90;;;;;;5054641;28;20040;-71
2022/01/14 02:43:28;;;;;;;25.80;9.77;;;6.30;99.90;;;;;;5054799;28;20080;-71
2022/01/14 02:45:56;;;;;;;29.23;9.85;;;6.30;99.90;;;;;;5050936;28;20028;-73
2022/01/14 02:48:27;;;;;;;31.55;10.30;;;6.30;99.90;;;;;;5056212;28;20113;-72
2022/01/14 02:51:09;;;;;;;26.70;10.23;;;6.30;99.90;;;;;;5055900;28;20053;-72
2022/01/14 02:56:19;;;;;;;29.65;8.55;;;6.20;99.90;;;;;;5055969;28;20086;-71
2022/01/14 02:58:46;;;;;;;27.45;9.40;;;6.20;99.90;;;;;;5057133;28;20021;-71
2022/01/14 03:01:18;;;;;;;33.67;9.48;;;6.20;99.90;;;;;;5049209;28;20433;-71
2022/01/14 03:03:45;;;;;;;29.70;9.52;;;6.20;99.90;;;;;;5045194;28;20048;-72
2022/01/14 03:06:12;;;;;;;26.13;8.73;;;6.30;99.90;;;;;;5056191;28;20028;-72
2022/01/14 03:08:38;;;;;;;21.85;8.27;;;6.30;99.90;;;;;;5056241;28;20035;-73
2022/01/14 03:11:15;;;;;;;31.17;8.80;;;6.20;99.90;;;;;;5057126;28;20108;-70
2022/01/14 03:13:41;;;;;;;22.67;8.50;;;6.20;99.90;;;;;;5063390;28;20037;-73
2022/01/14 03:16:07;;;;;;;23.20;7.63;;;6.20;99.90;;;;;;5064315;28;20150;-72
2022/01/14 03:18:42;;;;;;;23.10;7.63;;;6.20;99.90;;;;;;5075477;28;20457;-71
2022/01/14 03:21:12;;;;;;;16.75;6.65;;;6.20;99.90;;;;;;5073304;28;20082;-71
2022/01/14 03:23:45;;;;;;;18.30;5.85;;;6.20;99.90;;;;;;5067467;28;20036;-71
2022/01/14 03:26:12;;;;;;;24.55;7.13;;;6.20;99.90;;;;;;5055801;28;20028;-71
2022/01/14 03:28:38;;;;;;;24.48;6.80;;;6.20;99.90;;;;;;5059692;28;20056;-72
2022/01/14 03:31:03;;;;;;;23.92;6.97;;;6.20;99.90;;;;;;5070333;28;20418;-72
2022/01/14 03:33:29;;;;;;;27.00;8.45;;;6.20;99.90;;;;;;5067573;28;20033;-71
2022/01/14 03:35:54;;;;;;;26.25;6.57;;;6.20;99.90;;;;;;5069951;28;20028;-71
2022/01/14 03:38:20;;;;;;;24.90;6.65;;;6.20;99.90;;;;;;5064709;28;20112;-73
2022/01/14 03:40:46;;;;;;;22.48;6.13;;;6.30;99.90;;;;;;5063140;28;20510;-71
2022/01/14 03:43:11;;;;;;;29.10;6.53;;;6.30;99.90;;;;;;5058518;28;20049;-70
2022/01/14 03:45:39;;;;;;;27.30;6.63;;;6.30;99.90;;;;;;5058342;28;20579;-71
2022/01/14 03:48:06;;;;;;;22.63;6.63;;;6.40;99.90;;;;;;5057388;28;20378;-70
2022/01/14 03:50:32;;;;;;;28.40;7.28;;;6.50;99.90;;;;;;5062980;28;20108;-71
2022/01/14 03:53:01;;;;;;;29.88;7.25;;;6.60;99.90;;;;;;5058525;28;20112;-73
2022/01/14 03:55:27;;;;;;;31.60;8.32;;;6.70;99.90;;;;;;5070519;28;20035;-71
2022/01/14 03:57:53;;;;;;;30.58;8.80;;;6.80;99.90;;;;;;5061043;28;20024;-72
2022/01/14 04:00:19;;;;;;;35.53;10.38;;;6.90;99.90;;;;;;5067144;28;20025;-70
2022/01/14 04:02:46;;;;;;;36.28;11.23;;;6.90;99.90;;;;;;5061944;28;20466;-71
2022/01/14 04:05:12;;;;;;;42.70;12.48;;;7.00;99.90;;;;;;5071170;28;20037;-71
2022/01/14 04:07:38;;;;;;;39.75;13.45;;;7.10;99.90;;;;;;5058519;28;20069;-70
2022/01/14 04:10:05;;;;;;;38.00;13.55;;;7.20;99.90;;;;;;5066321;28;20017;-71
2022/01/14 04:12:47;;;;;;;43.92;13.32;;;7.20;99.90;;;;;;5065861;28;20135;-73
2022/01/14 04:17:59;;;;;;;50.45;14.52;;;7.40;99.90;;;;;;5068833;28;20023;-72
2022/01/14 04:20:28;;;;;;;40.92;14.20;;;7.50;99.90;;;;;;5063533;28;20029;-71
2022/01/14 04:22:53;;;;;;;35.38;13.23;;;7.60;99.90;;;;;;5067489;28;20032;-73
2022/01/14 04:25:20;;;;;;;39.25;14.25;;;7.60;99.90;;;;;;5057837;28;20393;-72
2022/01/14 04:27:46;;;;;;;35.38;14.35;;;7.70;99.90;;;;;;5069666;28;20021;-73
2022/01/14 04:30:12;;;;;;;33.00;14.27;;;7.70;99.90;;;;;;5062865;28;20051;-72
2022/01/14 04:32:39;;;;;;;36.05;14.70;;;7.80;99.90;;;;;;5062458;28;20029;-73
2022/01/14 04:35:05;;;;;;;37.33;15.18;;;7.80;99.90;;;;;;5070352;28;20043;-71
2022/01/14 04:37:30;;;;;;;34.35;14.05;;;7.80;99.90;;;;;;5057538;28;20694;-72
2022/01/14 04:39:56;;;;;;;39.53;13.63;;;7.80;99.90;;;;;;5072554;28;20033;-72
2022/01/14 04:42:23;;;;;;;38.78;13.38;;;7.80;99.90;;;;;;5060407;28;20037;-72
2022/01/14 04:44:52;;;;;;;32.30;12.60;;;7.90;99.90;;;;;;5063253;28;20381;-71
2022/01/14 04:47:30;;;;;;;39.05;12.50;;;7.90;99.90;;;;;;5067088;28;20032;-72
2022/01/14 04:49:55;;;;;;;32.22;13.00;;;7.90;99.90;;;;;;5059251;28;20131;-71
2022/01/14 04:52:22;;;;;;;30.35;13.00;;;7.90;99.90;;;;;;5064046;28;21876;-72
2022/01/14 04:54:48;;;;;;;32.22;12.73;;;7.90;99.90;;;;;;5067523;28;20039;-72
2022/01/14 04:57:16;;;;;;;34.20;13.30;;;7.90;99.90;;;;;;5070581;28;20036;-73
2022/01/14 04:59:46;;;;;;;33.30;11.70;;;8.00;99.90;;;;;;5058958;28;20449;-72
2022/01/14 05:02:13;;;;;;;31.02;11.65;;;8.00;99.90;;;;;;5073576;28;20043;-72
2022/01/14 05:04:41;;;;;;;34.80;10.80;;;8.00;99.90;;;;;;5060461;28;20033;-71
2022/01/14 05:07:10;;;;;;;29.88;10.45;;;8.00;99.90;;;;;;5064681;28;20017;-71
2022/01/14 05:09:40;;;;;;;27.80;9.65;;;8.00;99.90;;;;;;5072046;28;20090;-72
2022/01/14 05:12:09;;;;;;;27.45;10.27;;;8.00;99.90;;;;;;5072717;28;20024;-72
2022/01/14 05:14:36;;;;;;;32.35;10.90;;;8.10;99.90;;;;;;5043619;28;20383;-72
2022/01/14 05:17:01;;;;;;;32.25;11.55;;;8.10;99.90;;;;;;5034471;28;20025;-71
2022/01/14 05:19:27;;;;;;;30.75;11.35;;;8.10;99.90;;;;;;5054879;28;20039;-73
2022/01/14 05:21:53;;;;;;;24.70;10.55;;;8.20;99.90;;;;;;5053327;28;20032;-72
2022/01/14 05:24:19;;;;;;;26.58;9.80;;;8.20;99.90;;;;;;5069163;28;20065;-73
2022/01/14 05:26:44;;;;;;;29.15;10.48;;;8.10;99.90;;;;;;5073437;28;20362;-71
2022/01/14 05:29:10;;;;;;;24.27;10.65;;;8.00;99.90;;;;;;5071667;28;20029;-71
2022/01/14 05:31:51;;;;;;;27.63;10.18;;;8.00;99.90;;;;;;5073263;28;20403;-73
2022/01/14 05:34:17;;;;;;;26.88;11.35;;;7.90;99.90;;;;;;5069650;28;20059;-73
2022/01/14 05:36:44;;;;;;;29.80;10.75;;;7.80;99.90;;;;;;5052992;28;20098;-71
2022/01/14 05:39:10;;;;;;;37.90;11.60;;;7.70;99.90;;;;;;5048076;28;20162;-72
2022/01/14 05:41:37;;;;;;;29.58;12.38;;;7.60;99.90;;;;;;5072238;28;20016;-71
2022/01/14 05:44:04;;;;;;;29.90;12.15;;;7.60;99.90;;;;;;5072381;28;20054;-71
2022/01/14 05:46:29;;;;;;;32.05;12.18;;;7.50;99.90;;;;;;5047364;28;20190;-71
2022/01/14 05:48:55;;;;;;;35.15;13.20;;;7.40;99.90;;;;;;5060318;28;20497;-73
2022/01/14 05:51:21;;;;;;;32.85;13.85;;;7.40;99.90;;;;;;5053187;28;20461;-70
2022/01/14 05:53:46;;;;;;;30.40;12.52;;;7.30;99.90;;;;;;5057835;28;20108;-71
2022/01/14 05:56:12;;;;;;;40.72;13.73;;;7.30;99.90;;;;;;5069417;28;20470;-71
2022/01/14 05:58:37;;;;;;;30.17;13.02;;;7.30;99.90;;;;;;5071527;28;20099;-72
2022/01/14 06:01:03;;;;;;;39.33;12.88;;;7.30;99.90;;;;;;5056970;28;20037;-70
2022/01/14 06:03:29;;;;;;;29.77;12.68;;;7.30;99.90;;;;;;5052821;28;20045;-73
2022/01/14 06:05:54;;;;;;;35.38;13.27;;;7.30;99.90;;;;;;5054900;28;20096;-71
2022/01/14 06:08:20;;;;;;;36.30;15.07;;;7.30;99.90;;;;;;5067101;28;20024;-71
2022/01/14 06:10:45;;;;;;;36.17;13.48;;;7.30;99.90;;;;;;5037713;28;20093;-73
2022/01/14 06:13:11;;;;;;;32.47;13.65;;;7.40;99.90;;;;;;5060264;28;20047;-73
2022/01/14 06:15:36;;;;;;;33.47;12.48;;;7.40;99.90;;;;;;5062219;28;20035;-72
2022/01/14 06:18:02;;;;;;;30.10;13.13;;;7.50;99.90;;;;;;5058005;28;20029;-72
2022/01/14 06:20:28;;;;;;;32.47;12.90;;;7.50;99.90;;;;;;5046492;28;20123;-70
2022/01/14 06:22:53;;;;;;;37.13;12.95;;;7.60;99.90;;;;;;5067154;28;20545;-72
2022/01/14 06:25:20;;;;;;;32.28;12.75;;;7.60;99.90;;;;;;5052490;28;20486;-71
2022/01/14 06:27:45;;;;;;;29.45;12.40;;;7.70;99.90;;;;;;5055355;28;20017;-71
2022/01/14 06:30:12;;;;;;;29.63;14.05;;;7.70;99.90;;;;;;5067750;28;20081;-71
2022/01/14 06:32:41;;;;;;;27.35;11.73;;;7.80;99.90;;;;;;5065179;28;20036;-71
2022/01/14 06:35:16;;;;;;;25.80;10.57;;;7.80;99.90;;;;;;5053765;28;20129;-73
2022/01/14 06:37:42;;;;;;;26.30;11.10;;;7.90;99.90;;;;;;5072360;28;20142;-73
2022/01/14 06:40:09;;;;;;;25.70;10.27;;;7.90;99.90;;;;;;5071017;28;20513;-72
2022/01/14 06:42:35;;;;;;;29.60;10.55;;;8.00;99.90;;;;;;5049098;28;20037;-72
2022/01/14 06:45:01;;;;;;;23.52;10.52;;;8.00;99.90;;;;;;5053414;28;20039;-72
2022/01/14 06:47:26;;;;;;;29.77;11.15;;;8.00;99.90;;;;;;5053248;28;20107;-72
2022/01/14 06:49:52;;;;;;;23.90;8.68;;;8.10;99.90;;;;;;5051779;28;20390;-73
2022/01/14 06:52:18;;;;;;;25.05;10.20;;;8.10;99.90;;;;;;5056074;28;20064;-73
2022/01/14 06:54:44;;;;;;;21.67;9.73;;;8.10;99.90;;;;;;5058899;28;20033;-71
2022/01/14 06:57:09;;;;;;;21.80;9.25;;;8.10;99.90;;;;;;5070681;28;20117;-72
2022/01/14 06:59:35;;;;;;;27.77;9.57;;;8.20;99.90;;;;;;5062353;28;20029;-72
2022/01/14 07:02:02;;;;;;;23.13;8.88;;;8.20;99.90;;;;;;5061466;28;20106;-73
2022/01/14 07:04:28;;;;;;;23.10;8.57;;;8.30;99.90;;;;;;5055023;28;20052;-73
2022/01/14 07:06:53;;;;;;;23.58;8.43;;;8.30;99.90;;;;;;5070768;28;20032;-72
2022/01/14 07:09:19;;;;;;;22.85;7.80;;;8.30;99.90;;;;;;5061076;28;20025;-73
2022/01/14 07:11:52;;;;;;;23.70;9.40;;;8.30;99.90;;;;;;5051418;28;20474;-71
2022/01/14 07:14:18;;;;;;;28.73;8.75;;;8.30;99.90;;;;;;5070245;28;20071;-70
2022/01/14 07:16:43;;;;;;;24.05;9.05;;;8.30;99.90;;;;;;5072101;28;20485;-72
2022/01/14 07:19:09;;;;;;;19.08;8.30;;;8.30;99.90;;;;;;5065648;28;20063;-72
2022/01/14 07:21:34;;;;;;;23.58;7.43;;;8.40;99.90;;;;;;5056313;28;20486;-70
2022/01/14 07:24:01;;;;;;;19.77;7.82;;;8.40;99.90;;;;;;5064251;28;20032;-73
2022/01/14 07:26:27;;;;;;;18.73;8.02;;;8.40;99.90;;;;;;5063590;28;20028;-73
2022/01/14 07:28:53;;;;;;;23.10;9.43;;;8.40;99.90;;;;;;5051881;28;20033;-72
2022/01/14 07:31:18;;;;;;;22.48;8.32;;;8.50;99.90;;;;;;5056225;28;20035;-72
2022/01/14 07:33:44;;;;;;;25.67;8.40;;;8.50;99.90;;;;;;5056577;28;20149;-72
2022/01/14 07:36:10;;;;;;;27.98;9.23;;;8.50;99.90;;;;;;5059749;28;20103;-72
2022/01/14 07:38:35;;;;;;;21.85;9.20;;;8.50;99.90;;;;;;5061065;28;20043;-72
2022/01/14 07:41:01;;;;;;;24.77;8.90;;;8.50;99.90;;;;;;5056175;28;20412;-71
2022/01/14 07:43:26;;;;;;;23.80;8.90;;;8.60;99.90;;;;;;5060376;28;20485;-73
2022/01/14 07:45:52;;;;;;;22.90;8.15;;;8.60;99.90;;;;;;5071368;28;20556;-70
2022/01/14 07:48:18;;;;;;;26.92;10.15;;;8.50;99.90;;;;;;5058184;28;20039;-73
2022/01/14 07:50:43;;;;;;;21.05;9.30;;;8.50;99.90;;;;;;5059199;28;20469;-73
2022/01/14 07:53:10;;;;;;;25.23;8.30;;;8.50;99.90;;;;;;5062283;28;20104;-74
2022/01/14 07:55:36;;;;;;;25.42;9.45;;;8.50;99.90;;;;;;5055210;28;20079;-72
2022/01/14 07:58:03;;;;;;;26.13;9.93;;;8.50;99.90;;;;;;5055801;28;20062;-72
2022/01/14 08:00:29;;;;;;;28.88;10.93;;;8.50;99.90;;;;;;5055146;28;20036;-73
2022/01/14 08:02:56;;;;;;;27.63;9.60;;;8.50;99.90;;;;;;5062364;28;20393;-71
2022/01/14 08:05:57;;;;;;;26.48;9.35;;;8.50;99.90;;;;;;5055482;28;20025;-73
2022/01/14 08:08:23;;;;;;;21.33;8.98;;;8.60;99.90;;;;;;5056075;28;20446;-73
2022/01/14 08:10:49;;;;;;;23.95;8.25;;;8.50;99.90;;;;;;5054491;28;20033;-72
2022/01/14 08:13:15;;;;;;;23.73;9.38;;;8.50;99.90;;;;;;5057381;28;20056;-71
2022/01/14 08:15:40;;;;;;;26.77;9.57;;;8.50;99.90;;;;;;5054624;28;20025;-73
2022/01/14 08:18:07;;;;;;;26.23;10.07;;;8.50;99.90;;;;;;5072718;28;20462;-72
2022/01/14 08:20:33;;;;;;;25.08;10.55;;;8.50;99.90;;;;;;5038220;28;20037;-73
2022/01/14 08:22:59;;;;;;;24.40;11.55;;;8.60;99.90;;;;;;5058280;28;20366;-74
2022/01/14 08:25:25;;;;;;;23.45;9.10;;;8.60;99.90;;;;;;5064333;28;20074;-71
2022/01/14 08:27:51;;;;;;;22.15;9.35;;;8.60;99.90;;;;;;5053854;28;20438;-73
2022/01/14 08:30:16;;;;;;;20.40;8.90;;;8.60;99.90;;;;;;5063838;28;20112;-72
2022/01/14 08:32:42;;;;;;;25.50;9.65;;;8.60;99.90;;;;;;5055201;28;20033;-73
2022/01/14 08:35:08;;;;;;;29.95;11.55;;;8.70;99.90;;;;;;5070730;28;20048;-73
2022/01/14 08:37:34;;;;;;;24.40;9.50;;;8.70;99.90;;;;;;5056968;28;20028;-73
2022/01/14 08:39:59;;;;;;;24.50;8.70;;;8.70;99.90;;;;;;5070199;28;20446;-72
2022/01/14 08:42:25;;;;;;;17.00;8.65;;;8.80;99.90;;;;;;5054333;28;20031;-71
2022/01/14 08:44:51;;;;;;;27.83;8.95;;;8.80;99.90;;;;;;5055328;28;20049;-71
2022/01/14 08:47:16;;;;;;;20.63;8.95;;;8.80;99.90;;;;;;5054149;28;20036;-72
2022/01/14 08:49:43;;;;;;;24.38;8.75;;;8.80;99.90;;;;;;5069841;28;20028;-72
2022/01/14 08:52:11;;;;;;;25.42;10.05;;;8.80;99.90;;;;;;5060018;28;20032;-73
2022/01/14 08:54:37;;;;;;;29.55;9.68;;;8.90;99.90;;;;;;5052425;28;20029;-73
2022/01/14 08:57:04;;;;;;;22.70;9.18;;;8.90;99.90;;;;;;5053352;28;20053;-71
2022/01/14 08:59:30;;;;;;;22.00;9.05;;;8.90;99.90;;;;;;5058244;28;20077;-72
2022/01/14 09:01:57;;;;;;;28.33;8.88;;;8.90;99.90;;;;;;5061506;28;20060;-73
2022/01/14 09:04:23;;;;;;;20.45;8.88;;;9.00;99.90;;;;;;5063081;28;20052;-71
2022/01/14 09:06:48;;;;;;;24.85;9.20;;;9.00;99.90;;;;;;5068112;28;20021;-72
2022/01/14 09:09:14;;;;;;;18.85;7.20;;;9.00;99.90;;;;;;5054314;28;20025;-72
2022/01/14 09:11:40;;;;;;;25.60;9.68;;;9.10;99.90;;;;;;5053103;28;20033;-73
2022/01/14 09:14:06;;;;;;;24.13;8.60;;;9.10;99.90;;;;;;5057044;28;20036;-74
2022/01/14 09:16:32;;;;;;;24.67;10.55;;;9.10;99.90;;;;;;5061476;28;20029;-73
2022/01/14 09:18:58;;;;;;;20.83;8.63;;;9.20;99.90;;;;;;5064428;28;20027;-73
2022/01/14 09:21:24;;;;;;;23.00;8.02;;;9.20;99.90;;;;;;5073593;28;20027;-73
2022/01/14 09:24:02;;;;;;;20.67;8.30;;;9.20;99.90;;;;;;5071147;28;20041;-72
2022/01/14 09:26:28;;;;;;;20.63;7.80;;;9.30;99.90;;;;;;5055202;28;20056;-71
2022/01/14 09:28:54;;;;;;;19.52;7.80;;;9.30;99.90;;;;;;5067845;28;20033;-72
2022/01/14 09:31:20;;;;;;;22.60;7.82;;;9.40;99.90;;;;;;5061095;28;20032;-73
2022/01/14 09:33:45;;;;;;;20.70;6.50;;;9.40;99.90;;;;;;5061062;28;20024;-73
2022/01/14 09:36:11;;;;;;;21.63;7.45;;;9.50;99.90;;;;;;5070012;28;21936;-73
2022/01/14 09:38:37;;;;;;;21.45;7.03;;;9.50;99.90;;;;;;5054646;28;20029;-73
2022/01/14 09:41:06;;;;;;;20.10;6.45;;;9.60;99.90;;;;;;5060204;28;20025;-73
2022/01/14 09:43:36;;;;;;;24.10;5.82;;;9.60;99.90;;;;;;5058052;28;20056;-71
2022/01/14 09:46:08;;;;;;;16.67;5.97;;;9.70;99.90;;;;;;5052624;28;20098;-73
2022/01/14 09:48:35;;;;;;;;;;;9.70;99.90;;;;;;5063250;28;20024;-72
2022/01/14 09:51:01;;;;;;;24.23;6.85;;;9.80;99.90;;;;;;5056536;28;19904;-72
2022/01/14 09:53:29;;;;;;;20.25;5.57;;;9.90;99.90;;;;;;5053171;28;20029;-72
2022/01/14 09:55:55;;;;;;;20.92;6.03;;;9.90;99.90;;;;;;5057893;28;20049;-73
2022/01/14 09:58:29;;;;;;;17.73;7.55;;;9.90;99.90;;;;;;5052488;28;20390;-71
2022/01/14 10:01:10;;;;;;;21.77;6.07;;;10.00;99.90;;;;;;5053745;28;20453;-72
2022/01/14 10:03:47;;;;;;;19.20;5.38;;;10.00;99.90;;;;;;5055321;28;20037;-73
2022/01/14 10:06:34;;;;;;;15.98;5.32;;;10.10;99.90;;;;;;5053052;28;20075;-71
2022/01/14 10:09:09;;;;;;;15.20;5.20;;;10.10;99.90;;;;;;5057374;28;20120;-72
2022/01/14 10:11:37;;;;;;;15.65;5.80;;;10.10;99.90;;;;;;5051987;28;20537;-72
2022/01/14 10:14:06;;;;;;;18.65;5.55;;;10.10;99.90;;;;;;5060142;28;20021;-72
2022/01/14 10:16:31;;;;;;;16.08;5.65;;;10.20;99.90;;;;;;5054297;28;20024;-73
2022/01/14 10:18:57;;;;;;;19.98;5.47;;;10.10;99.90;;;;;;5072043;28;20041;-73
2022/01/14 10:21:31;;;;;;;19.02;5.65;;;10.10;99.90;;;;;;5035297;28;20466;-71
2022/01/14 10:23:56;;;;;;;21.23;6.10;;;10.10;99.90;;;;;;5057355;28;20036;-73
2022/01/14 10:26:22;;;;;;;18.65;6.20;;;10.10;99.90;;;;;;5053251;28;20028;-71
2022/01/14 10:29:03;;;;;;;17.05;5.47;;;10.10;99.90;;;;;;5057303;28;20097;-72
2022/01/14 10:31:34;;;;;;;15.18;4.47;;;10.10;99.90;;;;;;5057131;28;20024;-72
2022/01/14 10:34:16;;;;;;;19.90;5.47;;;10.10;99.90;;;;;;5054484;28;20033;-73
2022/01/14 10:36:43;;;;;;;15.88;4.95;;;10.00;99.90;;;;;;5050478;28;20117;-73
2022/01/14 10:39:26;;;;;;;18.05;6.18;;;10.00;99.90;;;;;;5054935;28;20477;-73
2022/01/14 10:41:55;;;;;;;27.08;6.97;;;10.00;99.90;;;;;;5058136;28;20024;-72
2022/01/14 10:44:29;;;;;;;16.88;5.95;;;10.00;99.90;;;;;;5052888;28;20478;-72
2022/01/14 10:47:17;;;;;;;24.77;6.13;;;10.10;99.90;;;;;;5052102;28;20025;-73
2022/01/14 10:49:46;;;;;;;17.40;6.47;;;10.10;99.90;;;;;;5052877;28;20124;-73
2022/01/14 10:52:18;;;;;;;15.38;6.18;;;10.00;99.90;;;;;;5052294;28;20482;-73
2022/01/14 10:54:48;;;;;;;17.23;5.88;;;10.10;99.90;;;;;;5035705;28;20488;-73
2022/01/14 10:57:15;;;;;;;19.50;5.43;;;10.10;99.90;;;;;;5051800;28;20112;-71
2022/01/14 10:59:41;;;;;;;14.43;4.90;;;10.10;99.90;;;;;;5053187;28;20466;-72
2022/01/14 11:02:30;;;;;;;19.20;7.28;;;10.20;99.90;;;;;;5060339;28;20037;-72
2022/01/14 11:05:07;;;;;;;20.33;7.25;;;10.20;99.90;;;;;;5057018;28;20037;-72
2022/01/14 11:07:33;;;;;;;22.70;6.75;;;10.20;99.90;;;;;;5050012;28;20064;-72
2022/01/14 11:09:59;;;;;;;25.55;8.50;;;10.20;99.90;;;;;;5059912;28;20060;-73
2022/01/14 11:12:25;;;;;;;20.02;6.22;;;10.20;99.90;;;;;;5066726;28;20041;-72
2022/01/14 11:14:51;;;;;;;20.30;5.97;;;10.20;99.90;;;;;;5052832;28;20082;-72
2022/01/14 11:17:16;;;;;;;23.40;6.75;;;10.20;99.90;;;;;;5064181;28;20108;-73
2022/01/14 11:19:46;;;;;;;14.80;5.65;;;10.20;99.90;;;;;;5036989;28;20033;-73
2022/01/14 11:24:57;;;;;;;12.95;4.70;;;10.30;99.90;;;;;;5062409;28;20094;-73
2022/01/14 11:27:25;;;;;;;11.82;4.47;;;10.30;99.90;;;;;;5037141;28;20464;-72
2022/01/14 11:29:57;;;;;;;17.30;5.18;;;10.30;99.90;;;;;;5055278;28;20025;-73
2022/01/14 11:32:24;;;;;;;12.45;4.90;;;10.30;99.90;;;;;;5056490;28;20478;-73
2022/01/14 11:34:51;;;;;;;18.05;5.47;;;10.40;99.90;;;;;;5060840;28;20079;-74
2022/01/14 11:37:29;;;;;;;16.85;5.22;;;10.40;99.90;;;;;;5064468;28;20082;-72
2022/01/14 11:39:58;;;;;;;15.35;5.95;;;10.40;99.90;;;;;;5054836;28;20039;-72
2022/01/14 11:43:04;;;;;;;18.13;6.25;;;10.40;99.90;;;;;;5054010;28;20043;-73
2022/01/14 11:45:45;;;;;;;15.90;4.65;;;10.40;99.90;;;;;;5049089;28;20076;-73
2022/01/14 11:48:35;;;;;;;13.98;5.10;;;10.50;99.90;;;;;;5068233;28;20533;-74
2022/01/14 11:51:03;;;;;;;17.42;5.03;;;10.50;99.90;;;;;;5061416;28;20033;-73
2022/01/14 11:53:47;;;;;;;12.18;5.05;;;10.50;99.90;;;;;;5040919;28;20037;-72
2022/01/14 11:56:35;;;;;;;13.68;5.05;;;10.50;99.90;;;;;;5062735;28;20075;-73
2022/01/14 11:59:21;;;;;;;16.83;5.60;;;10.50;99.90;;;;;;5060143;28;20413;-73
2022/01/14 12:01:52;;;;;;;15.55;4.55;;;10.60;99.90;;;;;;5072774;28;20029;-72
2022/01/14 12:04:18;;;;;;;13.23;5.45;;;10.60;99.90;;;;;;5060644;28;20040;-71
2022/01/14 12:06:50;;;;;;;14.75;5.10;;;10.60;99.90;;;;;;5062111;28;20087;-72
2022/01/14 12:09:20;;;;;;;16.45;5.20;;;10.70;99.90;;;;;;5058901;28;20040;-71
2022/01/14 12:12:26;;;;;;;16.92;5.20;;;10.70;99.90;;;;;;5054187;28;20083;-72
2022/01/14 12:14:57;;;;;;;19.00;5.93;;;10.70;99.90;;;;;;5060986;28;20025;-73
2022/01/14 12:17:34;;;;;;;18.55;5.25;;;10.70;99.90;;;;;;5058738;28;20029;-73
2022/01/14 12:20:14;;;;;;;16.55;6.55;;;10.70;99.90;;;;;;5056109;28;20529;-72
2022/01/14 12:22:41;;;;;;;14.77;6.03;;;10.80;99.90;;;;;;5065202;28;20052;-73
2022/01/14 12:25:08;;;;;;;26.98;7.57;;;10.80;99.90;;;;;;5056665;28;20508;-73
2022/01/14 12:27:42;;;;;;;18.52;6.85;;;10.80;99.90;;;;;;5068483;28;20428;-73
2022/01/14 12:30:27;;;;;;;15.50;6.65;;;10.80;99.90;;;;;;5068782;28;20104;-71
2022/01/14 12:32:54;;;;;;;17.35;5.95;;;10.80;99.90;;;;;;5055006;28;20470;-73
2022/01/14 12:35:27;;;;;;;20.08;6.57;;;10.80;99.90;;;;;;5053931;28;20102;-72
2022/01/14 12:37:55;;;;;;;17.95;6.68;;;10.80;99.90;;;;;;5055302;28;20029;-73
2022/01/14 12:40:31;;;;;;;17.20;5.97;;;10.80;99.90;;;;;;5053968;28;20056;-73
2022/01/14 12:42:59;;;;;;;18.92;6.00;;;10.80;99.90;;;;;;5053591;28;20048;-72
2022/01/14 12:45:35;;;;;;;14.55;5.63;;;10.80;99.90;;;;;;5035431;28;20048;-72
2022/01/14 12:48:32;;;;;;;13.60;5.00;;;10.80;99.90;;;;;;5062337;28;20074;-72
2022/01/14 12:51:27;;;;;;;17.45;6.25;;;10.80;99.90;;;;;;5064235;28;20035;-73
2022/01/14 12:53:58;;;;;;;17.10;5.47;;;10.80;99.90;;;;;;5061720;28;20016;-72
2022/01/14 12:56:30;;;;;;;15.90;5.45;;;10.80;99.90;;;;;;5056492;28;20087;-73
2022/01/14 12:59:09;;;;;;;15.85;5.07;;;10.80;99.90;;;;;;5056718;28;20032;-72
2022/01/14 13:01:39;;;;;;;17.02;4.78;;;10.80;99.90;;;;;;5054231;28;20041;-72
2022/01/14 13:04:11;;;;;;;13.40;4.40;;;10.90;99.90;;;;;;5056964;28;20128;-73
2022/01/14 13:06:48;;;;;;;16.75;4.90;;;10.90;99.90;;;;;;5057428;28;20104;-72
2022/01/14 13:09:21;;;;;;;16.40;5.22;;;10.90;99.90;;;;;;5034714;28;20489;-74
2022/01/14 13:12:03;;;;;;;15.80;4.25;;;11.00;99.90;;;;;;5053393;28;20469;-72
2022/01/14 13:14:44;;;;;;;16.98;4.95;;;11.00;99.90;;;;;;5053106;28;20037;-73
2022/01/14 13:17:15;;;;;;;16.83;4.38;;;11.00;99.90;;;;;;5053260;28;20040;-72
2022/01/14 13:19:42;;;;;;;14.35;4.85;;;11.00;99.90;;;;;;5057407;28;20021;-72